sensor_id;sensor_type;location;lat;lon;timestamp;pressure;altitude;pressure_sealevel;temperature;humidity
6853;BME280;3465;42.144;24.722;2022-09-09T00:02:26;99662.00;;;19.73;97.08
6853;BME280;3465;42.144;24.722;2022-09-09T00:05:04;99666.31;;;19.72;97.19
6853;BME280;3465;42.144;24.722;2022-09-09T00:07:43;99654.34;;;19.62;98.32
6853;BME280;3465;42.144;24.722;2022-09-09T00:21:07;99653.59;;;19.59;98.68
6853;BME280;3465;42.144;24.722;2022-09-09T00:23:38;99645.19;;;19.43;98.87
6853;BME280;3465;42.144;24.722;2022-09-09T00:29:09;99663.69;;;19.30;99.85
6853;BME280;3465;42.144;24.722;2022-09-09T00:31:39;99668.94;;;19.24;100.00
6853;BME280;3465;42.144;24.722;2022-09-09T00:34:13;99659.53;;;19.18;100.00
6853;BME280;3465;42.144;24.722;2022-09-09T00:36:40;99666.66;;;19.07;100.00
6853;BME280;3465;42.144;24.722;2022-09-09T00:39:17;99671.81;;;19.10;100.00
6853;BME280;3465;42.144;24.722;2022-09-09T00:55:48;99665.22;;;18.90;100.00
6853;BME280;3465;42.144;24.722;2022-09-09T00:58:16;99651.47;;;18.82;100.00
6853;BME280;3465;42.144;24.722;2022-09-09T01:03:21;99674.78;;;18.89;100.00
6853;BME280;3465;42.144;24.722;2022-09-09T01:11:09;99648.97;;;18.76;100.00
6853;BME280;3465;42.144;24.722;2022-09-09T01:13:37;99658.53;;;18.75;100.00
6853;BME280;3465;42.144;24.722;2022-09-09T01:16:04;99670.66;;;18.76;100.00
6853;BME280;3465;42.144;24.722;2022-09-09T01:18:37;99652.66;;;18.63;100.00
6853;BME280;3465;42.144;24.722;2022-09-09T01:27:06;99648.66;;;18.37;100.00
6853;BME280;3465;42.144;24.722;2022-09-09T01:29:33;99665.78;;;18.55;100.00
6853;BME280;3465;42.144;24.722;2022-09-09T01:32:35;99670.19;;;18.50;100.00
6853;BME280;3465;42.144;24.722;2022-09-09T01:34:48;99660.75;;;18.44;100.00
6853;BME280;3465;42.144;24.722;2022-09-09T01:37:15;99662.41;;;18.48;100.00
6853;BME280;3465;42.144;24.722;2022-09-09T01:39:43;99656.19;;;18.59;100.00
6853;BME280;3465;42.144;24.722;2022-09-09T01:42:13;99656.34;;;18.49;100.00
6853;BME280;3465;42.144;24.722;2022-09-09T01:44:39;99640.91;;;18.34;100.00
6853;BME280;3465;42.144;24.722;2022-09-09T01:47:06;99660.75;;;18.43;100.00
6853;BME280;3465;42.144;24.722;2022-09-09T01:49:32;99668.53;;;18.44;100.00
6853;BME280;3465;42.144;24.722;2022-09-09T01:52:00;99654.75;;;18.39;100.00
6853;BME280;3465;42.144;24.722;2022-09-09T01:54:29;99651.25;;;18.40;100.00
6853;BME280;3465;42.144;24.722;2022-09-09T01:57:17;99655.63;;;18.38;100.00
6853;BME280;3465;42.144;24.722;2022-09-09T02:08:05;99660.91;;;18.29;100.00
6853;BME280;3465;42.144;24.722;2022-09-09T02:10:45;99662.75;;;18.21;100.00
6853;BME280;3465;42.144;24.722;2022-09-09T02:13:17;99659.50;;;18.07;100.00
6853;BME280;3465;42.144;24.722;2022-09-09T02:16:08;99657.03;;;17.95;100.00
6853;BME280;3465;42.144;24.722;2022-09-09T02:21:39;99635.50;;;17.86;100.00
6853;BME280;3465;42.144;24.722;2022-09-09T02:24:08;99634.53;;;17.94;100.00
6853;BME280;3465;42.144;24.722;2022-09-09T02:26:38;99631.97;;;17.93;100.00
6853;BME280;3465;42.144;24.722;2022-09-09T02:29:08;99651.78;;;18.01;100.00
6853;BME280;3465;42.144;24.722;2022-09-09T02:31:36;99646.56;;;18.03;100.00
6853;BME280;3465;42.144;24.722;2022-09-09T02:34:05;99648.31;;;18.02;100.00
6853;BME280;3465;42.144;24.722;2022-09-09T02:36:34;99637.91;;;18.02;100.00
6853;BME280;3465;42.144;24.722;2022-09-09T02:39:01;99643.19;;;17.96;100.00
6853;BME280;3465;42.144;24.722;2022-09-09T02:41:33;99648.44;;;17.93;100.00
6853;BME280;3465;42.144;24.722;2022-09-09T02:43:59;99632.91;;;17.87;100.00
6853;BME280;3465;42.144;24.722;2022-09-09T02:49:19;99640.66;;;17.92;100.00
6853;BME280;3465;42.144;24.722;2022-09-09T02:52:06;99657.88;;;17.99;100.00
6853;BME280;3465;42.144;24.722;2022-09-09T02:54:34;99646.75;;;17.88;100.00
6853;BME280;3465;42.144;24.722;2022-09-09T02:57:22;99646.00;;;17.78;100.00
6853;BME280;3465;42.144;24.722;2022-09-09T02:59:58;99662.31;;;17.89;100.00
6853;BME280;3465;42.144;24.722;2022-09-09T03:02:24;99659.72;;;17.91;100.00
6853;BME280;3465;42.144;24.722;2022-09-09T03:04:50;99645.22;;;17.73;100.00
6853;BME280;3465;42.144;24.722;2022-09-09T03:07:17;99650.38;;;17.75;100.00
6853;BME280;3465;42.144;24.722;2022-09-09T03:09:43;99664.06;;;17.90;100.00
6853;BME280;3465;42.144;24.722;2022-09-09T03:12:10;99654.56;;;17.88;100.00
6853;BME280;3465;42.144;24.722;2022-09-09T03:14:36;99642.53;;;17.79;100.00
6853;BME280;3465;42.144;24.722;2022-09-09T03:17:03;99627.16;;;17.64;100.00
6853;BME280;3465;42.144;24.722;2022-09-09T03:19:29;99666.75;;;17.83;100.00
6853;BME280;3465;42.144;24.722;2022-09-09T03:21:55;99659.09;;;17.72;100.00
6853;BME280;3465;42.144;24.722;2022-09-09T03:24:20;99665.19;;;17.68;100.00
6853;BME280;3465;42.144;24.722;2022-09-09T03:26:50;99662.69;;;17.59;100.00
6853;BME280;3465;42.144;24.722;2022-09-09T03:29:16;99678.22;;;17.64;100.00
6853;BME280;3465;42.144;24.722;2022-09-09T03:31:43;99685.19;;;17.60;100.00
6853;BME280;3465;42.144;24.722;2022-09-09T03:34:09;99689.59;;;17.54;100.00
6853;BME280;3465;42.144;24.722;2022-09-09T03:36:36;99689.50;;;17.63;100.00
6853;BME280;3465;42.144;24.722;2022-09-09T03:39:02;99688.72;;;17.56;100.00
6853;BME280;3465;42.144;24.722;2022-09-09T03:41:29;99698.19;;;17.60;100.00
6853;BME280;3465;42.144;24.722;2022-09-09T03:43:57;99682.69;;;17.53;100.00
6853;BME280;3465;42.144;24.722;2022-09-09T03:46:24;99694.75;;;17.57;100.00
6853;BME280;3465;42.144;24.722;2022-09-09T03:48:50;99677.53;;;17.50;100.00
6853;BME280;3465;42.144;24.722;2022-09-09T03:51:17;99677.47;;;17.54;100.00
6853;BME280;3465;42.144;24.722;2022-09-09T03:53:43;99656.81;;;17.42;100.00
6853;BME280;3465;42.144;24.722;2022-09-09T03:56:08;99684.59;;;17.34;100.00
6853;BME280;3465;42.144;24.722;2022-09-09T03:58:35;99691.63;;;17.20;100.00
6853;BME280;3465;42.144;24.722;2022-09-09T04:01:12;99686.44;;;17.18;100.00
6853;BME280;3465;42.144;24.722;2022-09-09T04:03:39;99677.03;;;17.10;100.00
6853;BME280;3465;42.144;24.722;2022-09-09T04:06:05;99661.50;;;17.04;100.00
6853;BME280;3465;42.144;24.722;2022-09-09T04:08:33;99686.44;;;17.18;100.00
6853;BME280;3465;42.144;24.722;2022-09-09T04:10:59;99675.25;;;17.12;100.00
6853;BME280;3465;42.144;24.722;2022-09-09T04:13:25;99687.34;;;17.16;100.00
6853;BME280;3465;42.144;24.722;2022-09-09T04:15:56;99681.41;;;17.05;100.00
6853;BME280;3465;42.144;24.722;2022-09-09T04:18:23;99677.03;;;17.07;100.00
6853;BME280;3465;42.144;24.722;2022-09-09T04:20:49;99679.53;;;17.17;100.00
6853;BME280;3465;42.144;24.722;2022-09-09T04:23:16;99669.09;;;17.24;100.00
6853;BME280;3465;42.144;24.722;2022-09-09T04:25:51;99673.34;;;17.32;100.00
6853;BME280;3465;42.144;24.722;2022-09-09T04:28:18;99658.72;;;17.22;100.00
6853;BME280;3465;42.144;24.722;2022-09-09T04:30:45;99668.16;;;17.32;100.00
6853;BME280;3465;42.144;24.722;2022-09-09T04:33:11;99676.72;;;17.45;100.00
6853;BME280;3465;42.144;24.722;2022-09-09T04:35:37;99679.22;;;17.52;100.00
6853;BME280;3465;42.144;24.722;2022-09-09T04:38:04;99681.75;;;17.57;100.00
6853;BME280;3465;42.144;24.722;2022-09-09T04:40:30;99689.50;;;17.63;100.00
6853;BME280;3465;42.144;24.722;2022-09-09T04:43:00;99693.78;;;17.65;100.00
6853;BME280;3465;42.144;24.722;2022-09-09T04:45:26;99690.28;;;17.71;100.00
6853;BME280;3465;42.144;24.722;2022-09-09T04:47:52;99676.47;;;17.67;100.00
6853;BME280;3465;42.144;24.722;2022-09-09T04:50:18;99696.19;;;17.83;100.00
6853;BME280;3465;42.144;24.722;2022-09-09T04:52:44;99712.47;;;17.97;100.00
6853;BME280;3465;42.144;24.722;2022-09-09T04:55:10;99702.13;;;17.94;100.00
6853;BME280;3465;42.144;24.722;2022-09-09T04:57:36;99715.03;;;18.00;100.00
6853;BME280;3465;42.144;24.722;2022-09-09T05:00:03;99724.44;;;18.10;100.00
6853;BME280;3465;42.144;24.722;2022-09-09T05:02:28;99723.72;;;18.65;100.00
6853;BME280;3465;42.144;24.722;2022-09-09T05:04:55;99708.31;;;20.02;98.57
6853;BME280;3465;42.144;24.722;2022-09-09T05:07:21;99732.75;;;21.82;90.56
6853;BME280;3465;42.144;24.722;2022-09-09T05:09:46;99724.44;;;23.14;79.83
6853;BME280;3465;42.144;24.722;2022-09-09T05:12:14;99757.44;;;24.67;72.13
6853;BME280;3465;42.144;24.722;2022-09-09T05:14:42;99760.31;;;25.87;66.71
6853;BME280;3465;42.144;24.722;2022-09-09T05:17:07;99767.41;;;26.83;61.82
6853;BME280;3465;42.144;24.722;2022-09-09T05:19:33;99768.47;;;27.67;58.54
6853;BME280;3465;42.144;24.722;2022-09-09T05:21:58;99764.53;;;28.42;54.84
6853;BME280;3465;42.144;24.722;2022-09-09T05:24:23;99753.66;;;28.95;52.47
6853;BME280;3465;42.144;24.722;2022-09-09T05:26:49;99773.84;;;29.42;50.47
6853;BME280;3465;42.144;24.722;2022-09-09T05:29:14;99774.00;;;29.99;48.46
6853;BME280;3465;42.144;24.722;2022-09-09T05:31:40;99775.09;;;30.52;46.86
6853;BME280;3465;42.144;24.722;2022-09-09T05:34:06;99787.44;;;31.08;45.14
6853;BME280;3465;42.144;24.722;2022-09-09T05:36:31;99792.63;;;31.50;43.41
6853;BME280;3465;42.144;24.722;2022-09-09T05:38:57;99799.22;;;31.96;41.90
6853;BME280;3465;42.144;24.722;2022-09-09T05:41:23;99794.66;;;31.98;40.79
6853;BME280;3465;42.144;24.722;2022-09-09T05:43:48;99804.53;;;32.34;40.65
6853;BME280;3465;42.144;24.722;2022-09-09T05:46:22;99804.84;;;32.67;39.56
6853;BME280;3465;42.144;24.722;2022-09-09T05:48:49;99803.59;;;33.09;38.30
6853;BME280;3465;42.144;24.722;2022-09-09T05:51:23;99792.63;;;33.13;37.84
6853;BME280;3465;42.144;24.722;2022-09-09T05:53:50;99797.06;;;33.49;37.14
6853;BME280;3465;42.144;24.722;2022-09-09T05:56:17;99804.50;;;33.91;36.36
6853;BME280;3465;42.144;24.722;2022-09-09T05:58:43;99803.72;;;34.35;35.91
6853;BME280;3465;42.144;24.722;2022-09-09T06:01:19;99810.06;;;34.56;34.28
6853;BME280;3465;42.144;24.722;2022-09-09T06:03:47;99789.91;;;34.74;33.77
6853;BME280;3465;42.144;24.722;2022-09-09T06:06:15;99795.50;;;34.93;33.76
6853;BME280;3465;42.144;24.722;2022-09-09T06:08:43;99748.94;;;35.18;32.57
6853;BME280;3465;42.144;24.722;2022-09-09T06:13:35;99793.66;;;36.20;31.39
6853;BME280;3465;42.144;24.722;2022-09-09T06:16:02;99777.91;;;36.47;30.41
6853;BME280;3465;42.144;24.722;2022-09-09T06:18:28;99796.41;;;36.90;30.43
6853;BME280;3465;42.144;24.722;2022-09-09T06:20:58;99798.69;;;36.94;30.23
6853;BME280;3465;42.144;24.722;2022-09-09T06:23:25;99792.63;;;37.02;30.13
6853;BME280;3465;42.144;24.722;2022-09-09T06:25:51;99788.91;;;37.52;29.53
6853;BME280;3465;42.144;24.722;2022-09-09T06:28:17;99772.94;;;37.60;28.89
6853;BME280;3465;42.144;24.722;2022-09-09T06:30:43;99795.97;;;38.01;28.76
6853;BME280;3465;42.144;24.722;2022-09-09T06:33:10;99787.03;;;38.00;28.74
6853;BME280;3465;42.144;24.722;2022-09-09T06:35:35;99810.19;;;38.30;28.59
6853;BME280;3465;42.144;24.722;2022-09-09T06:38:01;99797.56;;;38.40;28.00
6853;BME280;3465;42.144;24.722;2022-09-09T06:40:26;99800.84;;;38.34;28.03
6853;BME280;3465;42.144;24.722;2022-09-09T06:42:51;99811.53;;;38.80;27.68
6853;BME280;3465;42.144;24.722;2022-09-09T06:45:17;99807.19;;;39.06;27.40
6853;BME280;3465;42.144;24.722;2022-09-09T06:47:43;99802.78;;;39.32;26.93
6853;BME280;3465;42.144;24.722;2022-09-09T06:50:09;99820.31;;;39.71;26.51
6853;BME280;3465;42.144;24.722;2022-09-09T06:52:35;99819.06;;;40.01;26.12
6853;BME280;3465;42.144;24.722;2022-09-09T06:55:01;99818.38;;;39.81;25.91
6853;BME280;3465;42.144;24.722;2022-09-09T06:57:26;99813.44;;;39.42;26.82
6853;BME280;3465;42.144;24.722;2022-09-09T06:59:52;99820.31;;;39.89;26.44
6853;BME280;3465;42.144;24.722;2022-09-09T07:02:17;99815.28;;;39.41;26.82
6853;BME280;3465;42.144;24.722;2022-09-09T07:04:42;99814.19;;;39.44;26.80
6853;BME280;3465;42.144;24.722;2022-09-09T07:07:08;99813.47;;;39.59;26.60
6853;BME280;3465;42.144;24.722;2022-09-09T07:09:34;99820.97;;;40.09;25.66
6853;BME280;3465;42.144;24.722;2022-09-09T07:12:00;99817.94;;;40.29;25.67
6853;BME280;3465;42.144;24.722;2022-09-09T07:14:26;99797.09;;;40.65;25.43
6853;BME280;3465;42.144;24.722;2022-09-09T07:16:52;99826.47;;;40.50;25.11
6853;BME280;3465;42.144;24.722;2022-09-09T07:19:17;99826.56;;;40.66;25.13
6853;BME280;3465;42.144;24.722;2022-09-09T07:21:43;99822.31;;;40.89;24.85
6853;BME280;3465;42.144;24.722;2022-09-09T07:24:10;99825.47;;;40.26;25.40
6853;BME280;3465;42.144;24.722;2022-09-09T07:26:36;99810.53;;;40.06;25.51
6853;BME280;3465;42.144;24.722;2022-09-09T07:29:03;99826.16;;;40.79;25.27
6853;BME280;3465;42.144;24.722;2022-09-09T07:31:34;99829.94;;;41.02;24.14
6853;BME280;3465;42.144;24.722;2022-09-09T07:34:00;99815.72;;;40.84;24.19
6853;BME280;3465;42.144;24.722;2022-09-09T07:36:28;99827.16;;;41.19;24.44
6853;BME280;3465;42.144;24.722;2022-09-09T07:38:57;99823.16;;;41.32;23.72
6853;BME280;3465;42.144;24.722;2022-09-09T07:41:28;99826.09;;;41.62;23.78
6853;BME280;3465;42.144;24.722;2022-09-09T07:43:55;99818.34;;;41.67;23.30
6853;BME280;3465;42.144;24.722;2022-09-09T07:46:23;99821.91;;;42.00;23.23
6853;BME280;3465;42.144;24.722;2022-09-09T07:48:51;99818.47;;;42.38;23.19
6853;BME280;3465;42.144;24.722;2022-09-09T07:51:20;99808.53;;;42.38;23.07
6853;BME280;3465;42.144;24.722;2022-09-09T07:53:48;99813.44;;;42.03;23.25
6853;BME280;3465;42.144;24.722;2022-09-09T07:56:17;99797.06;;;41.64;23.56
6853;BME280;3465;42.144;24.722;2022-09-09T07:58:45;99808.22;;;42.01;22.92
6853;BME280;3465;42.144;24.722;2022-09-09T08:01:14;99802.00;;;42.09;23.01
6853;BME280;3465;42.144;24.722;2022-09-09T08:03:42;99797.66;;;41.18;23.45
6853;BME280;3465;42.144;24.722;2022-09-09T08:06:08;99795.09;;;41.08;24.08
6853;BME280;3465;42.144;24.722;2022-09-09T08:08:35;99793.31;;;41.25;23.58
6853;BME280;3465;42.144;24.722;2022-09-09T08:11:12;99793.56;;;41.72;23.82
6853;BME280;3465;42.144;24.722;2022-09-09T08:13:40;99799.59;;;42.85;22.07
6853;BME280;3465;42.144;24.722;2022-09-09T08:16:07;99801.69;;;43.05;22.14
6853;BME280;3465;42.144;24.722;2022-09-09T08:18:32;99802.13;;;42.31;22.42
6853;BME280;3465;42.144;24.722;2022-09-09T08:21:25;99785.88;;;40.77;23.53
6853;BME280;3465;42.144;24.722;2022-09-09T08:23:53;99786.94;;;40.25;24.81
6853;BME280;3465;42.144;24.722;2022-09-09T08:26:21;99783.59;;;40.06;25.53
6853;BME280;3465;42.144;24.722;2022-09-09T08:28:53;99784.78;;;40.62;24.36
6853;BME280;3465;42.144;24.722;2022-09-09T08:31:24;99761.88;;;41.08;24.29
6853;BME280;3465;42.144;24.722;2022-09-09T08:33:50;99757.59;;;40.73;23.89
6853;BME280;3465;42.144;24.722;2022-09-09T08:36:21;99771.66;;;41.09;23.80
6853;BME280;3465;42.144;24.722;2022-09-09T08:38:55;99768.06;;;41.58;23.27
6853;BME280;3465;42.144;24.722;2022-09-09T08:52:19;99771.56;;;43.16;22.47
6853;BME280;3465;42.144;24.722;2022-09-09T08:54:47;99763.91;;;42.51;22.72
6853;BME280;3465;42.144;24.722;2022-09-09T08:57:21;99774.06;;;42.40;22.64
6853;BME280;3465;42.144;24.722;2022-09-09T08:59:52;99777.50;;;42.81;22.26
6853;BME280;3465;42.144;24.722;2022-09-09T09:08:13;99770.66;;;43.92;21.45
6853;BME280;3465;42.144;24.722;2022-09-09T09:10:47;99763.34;;;41.84;22.51
6853;BME280;3465;42.144;24.722;2022-09-09T09:13:26;99745.13;;;41.78;23.22
6853;BME280;3465;42.144;24.722;2022-09-09T09:16:02;99733.91;;;42.37;22.87
6853;BME280;3465;42.144;24.722;2022-09-09T09:18:31;99744.47;;;42.55;22.16
6853;BME280;3465;42.144;24.722;2022-09-09T09:21:12;99746.75;;;43.05;22.33
6853;BME280;3465;42.144;24.722;2022-09-09T09:24:00;99728.91;;;41.14;23.29
6853;BME280;3465;42.144;24.722;2022-09-09T09:26:31;99731.28;;;41.25;23.82
6853;BME280;3465;42.144;24.722;2022-09-09T09:28:58;99702.22;;;40.95;23.88
6853;BME280;3465;42.144;24.722;2022-09-09T09:31:24;99718.56;;;41.01;24.28
6853;BME280;3465;42.144;24.722;2022-09-09T09:33:56;99713.22;;;39.75;25.04
6853;BME280;3465;42.144;24.722;2022-09-09T09:36:40;99706.13;;;39.48;25.67
6853;BME280;3465;42.144;24.722;2022-09-09T09:39:09;99688.63;;;38.01;27.16
6853;BME280;3465;42.144;24.722;2022-09-09T09:41:38;99688.16;;;37.69;27.52
6853;BME280;3465;42.144;24.722;2022-09-09T09:44:05;99692.06;;;38.30;26.51
6853;BME280;3465;42.144;24.722;2022-09-09T09:46:32;99694.84;;;39.45;25.77
6853;BME280;3465;42.144;24.722;2022-09-09T09:49:03;99696.41;;;39.38;25.84
6853;BME280;3465;42.144;24.722;2022-09-09T09:51:31;99669.19;;;39.76;25.61
6853;BME280;3465;42.144;24.722;2022-09-09T09:56:35;99674.25;;;38.29;26.66
6853;BME280;3465;42.144;24.722;2022-09-09T09:59:00;99676.31;;;38.72;26.65
6853;BME280;3465;42.144;24.722;2022-09-09T10:01:28;99672.31;;;39.11;26.15
6853;BME280;3465;42.144;24.722;2022-09-09T10:03:58;99671.75;;;37.62;27.67
6853;BME280;3465;42.144;24.722;2022-09-09T10:06:35;99657.63;;;38.16;27.51
6853;BME280;3465;42.144;24.722;2022-09-09T10:09:04;99639.63;;;37.43;28.78
6853;BME280;3465;42.144;24.722;2022-09-09T10:14:44;99639.41;;;39.77;25.43
6853;BME280;3465;42.144;24.722;2022-09-09T10:17:25;99651.47;;;40.74;25.30
6853;BME280;3465;42.144;24.722;2022-09-09T10:22:35;99647.19;;;40.48;25.06
6853;BME280;3465;42.144;24.722;2022-09-09T10:25:15;99652.00;;;41.02;24.94
6853;BME280;3465;42.144;24.722;2022-09-09T10:33:16;99673.34;;;43.16;22.55
6853;BME280;3465;42.144;24.722;2022-09-09T10:38:30;99646.28;;;39.46;26.32
6853;BME280;3465;42.144;24.722;2022-09-09T10:54:50;99613.88;;;35.66;32.34
6853;BME280;3465;42.144;24.722;2022-09-09T10:57:31;99613.81;;;35.36;32.78
6853;BME280;3465;42.144;24.722;2022-09-09T11:00:13;99611.81;;;36.68;31.22
6853;BME280;3465;42.144;24.722;2022-09-09T11:02:42;99592.31;;;37.52;30.11
6853;BME280;3465;42.144;24.722;2022-09-09T11:05:23;99611.94;;;37.98;29.55
6853;BME280;3465;42.144;24.722;2022-09-09T11:07:54;99610.19;;;38.79;28.34
6853;BME280;3465;42.144;24.722;2022-09-09T11:12:57;99575.38;;;38.24;28.86
6853;BME280;3465;42.144;24.722;2022-09-09T11:15:30;99598.38;;;38.54;28.94
6853;BME280;3465;42.144;24.722;2022-09-09T11:18:01;99600.41;;;38.25;28.84
6853;BME280;3465;42.144;24.722;2022-09-09T11:20:26;99589.50;;;37.53;29.96
6853;BME280;3465;42.144;24.722;2022-09-09T11:23:00;99580.81;;;37.42;29.85
6853;BME280;3465;42.144;24.722;2022-09-09T11:25:40;99570.31;;;37.58;29.63
6853;BME280;3465;42.144;24.722;2022-09-09T11:34:23;99579.28;;;38.57;28.56
6853;BME280;3465;42.144;24.722;2022-09-09T11:39:37;99581.13;;;38.56;28.62
6853;BME280;3465;42.144;24.722;2022-09-09T11:44:40;99571.94;;;39.20;27.67
6853;BME280;3465;42.144;24.722;2022-09-09T11:47:27;99547.19;;;38.38;28.30
6853;BME280;3465;42.144;24.722;2022-09-09T11:50:29;99567.00;;;37.37;30.34
6853;BME280;3465;42.144;24.722;2022-09-09T11:53:24;99558.97;;;36.60;31.09
6853;BME280;3465;42.144;24.722;2022-09-09T11:57:01;99548.25;;;35.32;32.56
6853;BME280;3465;42.144;24.722;2022-09-09T11:59:29;99538.66;;;35.50;33.41
6853;BME280;3465;42.144;24.722;2022-09-09T12:02:00;99536.69;;;35.01;34.01
6853;BME280;3465;42.144;24.722;2022-09-09T12:04:32;99524.88;;;35.45;33.06
6853;BME280;3465;42.144;24.722;2022-09-09T12:09:49;99532.06;;;36.81;31.78
6853;BME280;3465;42.144;24.722;2022-09-09T12:12:24;99529.44;;;37.46;30.81
6853;BME280;3465;42.144;24.722;2022-09-09T12:17:44;99522.97;;;37.29;30.05
6853;BME280;3465;42.144;24.722;2022-09-09T12:23:07;99512.63;;;35.82;32.80
6853;BME280;3465;42.144;24.722;2022-09-09T12:31:47;99496.00;;;34.25;35.66
6853;BME280;3465;42.144;24.722;2022-09-09T12:34:31;99474.16;;;33.88;36.14
6853;BME280;3465;42.144;24.722;2022-09-09T12:37:16;99472.69;;;33.95;36.01
6853;BME280;3465;42.144;24.722;2022-09-09T12:39:55;99479.47;;;33.77;36.20
6853;BME280;3465;42.144;24.722;2022-09-09T12:42:21;99486.28;;;33.81;36.04
6853;BME280;3465;42.144;24.722;2022-09-09T12:44:52;99486.44;;;33.58;36.89
6853;BME280;3465;42.144;24.722;2022-09-09T12:47:20;99480.03;;;33.49;37.57
6853;BME280;3465;42.144;24.722;2022-09-09T12:49:47;99439.31;;;33.47;37.11
6853;BME280;3465;42.144;24.722;2022-09-09T12:54:50;99450.16;;;33.88;37.06
6853;BME280;3465;42.144;24.722;2022-09-09T12:57:19;99474.78;;;34.23;36.21
6853;BME280;3465;42.144;24.722;2022-09-09T12:59:47;99442.84;;;34.01;37.02
6853;BME280;3465;42.144;24.722;2022-09-09T13:02:25;99469.03;;;34.07;36.48
6853;BME280;3465;42.144;24.722;2022-09-09T13:04:52;99458.50;;;34.06;36.61
6853;BME280;3465;42.144;24.722;2022-09-09T13:07:20;99453.19;;;34.26;36.67
6853;BME280;3465;42.144;24.722;2022-09-09T13:09:48;99459.69;;;34.33;36.77
6853;BME280;3465;42.144;24.722;2022-09-09T13:12:21;99448.75;;;34.16;36.77
6853;BME280;3465;42.144;24.722;2022-09-09T13:14:55;99432.19;;;34.12;36.67
6853;BME280;3465;42.144;24.722;2022-09-09T13:17:24;99437.19;;;34.26;36.97
6853;BME280;3465;42.144;24.722;2022-09-09T13:19:51;99434.53;;;34.26;36.90
6853;BME280;3465;42.144;24.722;2022-09-09T13:22:34;99435.28;;;34.17;37.18
6853;BME280;3465;42.144;24.722;2022-09-09T13:25:19;99444.00;;;34.19;36.85
6853;BME280;3465;42.144;24.722;2022-09-09T13:33:04;99439.84;;;34.06;37.68
6853;BME280;3465;42.144;24.722;2022-09-09T13:35:31;99411.84;;;34.00;37.89
6853;BME280;3465;42.144;24.722;2022-09-09T13:37:58;99423.75;;;33.96;37.34
6853;BME280;3465;42.144;24.722;2022-09-09T13:40:24;99421.31;;;33.82;37.24
6853;BME280;3465;42.144;24.722;2022-09-09T13:42:56;99420.66;;;33.58;38.08
6853;BME280;3465;42.144;24.722;2022-09-09T13:45:24;99414.41;;;33.48;38.10
6853;BME280;3465;42.144;24.722;2022-09-09T13:47:52;99406.38;;;33.26;38.93
6853;BME280;3465;42.144;24.722;2022-09-09T13:50:26;99401.06;;;33.15;39.55
6853;BME280;3465;42.144;24.722;2022-09-09T13:52:57;99396.50;;;33.06;39.21
6853;BME280;3465;42.144;24.722;2022-09-09T13:55:25;99393.94;;;33.04;40.80
6853;BME280;3465;42.144;24.722;2022-09-09T13:58:01;99394.78;;;33.05;39.88
6853;BME280;3465;42.144;24.722;2022-09-09T14:00:32;99392.47;;;33.00;40.11
6853;BME280;3465;42.144;24.722;2022-09-09T14:02:58;99393.69;;;33.07;39.57
6853;BME280;3465;42.144;24.722;2022-09-09T14:05:26;99399.28;;;33.04;40.00
6853;BME280;3465;42.144;24.722;2022-09-09T14:07:52;99396.50;;;32.95;40.88
6853;BME280;3465;42.144;24.722;2022-09-09T14:10:18;99383.84;;;32.75;41.46
6853;BME280;3465;42.144;24.722;2022-09-09T14:12:43;99381.41;;;32.50;42.48
6853;BME280;3465;42.144;24.722;2022-09-09T14:15:10;99384.44;;;32.45;42.99
6853;BME280;3465;42.144;24.722;2022-09-09T14:17:37;99399.38;;;32.35;43.06
6853;BME280;3465;42.144;24.722;2022-09-09T14:20:06;99384.19;;;32.25;43.42
6853;BME280;3465;42.144;24.722;2022-09-09T14:22:36;99363.63;;;32.04;43.42
6853;BME280;3465;42.144;24.722;2022-09-09T14:25:02;99392.22;;;32.01;43.99
6853;BME280;3465;42.144;24.722;2022-09-09T14:27:28;99380.69;;;31.89;44.09
6853;BME280;3465;42.144;24.722;2022-09-09T14:29:56;99366.94;;;31.72;44.21
6853;BME280;3465;42.144;24.722;2022-09-09T14:32:22;99364.16;;;31.73;44.01
6853;BME280;3465;42.144;24.722;2022-09-09T14:34:48;99365.03;;;31.74;44.16
6853;BME280;3465;42.144;24.722;2022-09-09T14:37:17;99342.59;;;31.54;45.00
6853;BME280;3465;42.144;24.722;2022-09-09T14:39:43;99378.31;;;31.74;45.33
6853;BME280;3465;42.144;24.722;2022-09-09T14:42:10;99372.72;;;31.66;45.91
6853;BME280;3465;42.144;24.722;2022-09-09T14:44:36;99377.03;;;31.79;45.70
6853;BME280;3465;42.144;24.722;2022-09-09T14:47:07;99366.16;;;31.82;45.57
6853;BME280;3465;42.144;24.722;2022-09-09T14:49:35;99352.88;;;31.82;45.94
6853;BME280;3465;42.144;24.722;2022-09-09T14:52:01;99354.25;;;31.88;46.95
6853;BME280;3465;42.144;24.722;2022-09-09T14:54:27;99361.59;;;31.84;45.21
6853;BME280;3465;42.144;24.722;2022-09-09T14:56:54;99361.59;;;31.84;46.03
6853;BME280;3465;42.144;24.722;2022-09-09T14:59:19;99356.94;;;31.75;45.69
6853;BME280;3465;42.144;24.722;2022-09-09T15:01:45;99351.63;;;31.75;45.88
6853;BME280;3465;42.144;24.722;2022-09-09T15:04:11;99354.41;;;31.74;46.18
6853;BME280;3465;42.144;24.722;2022-09-09T15:06:37;99347.53;;;31.71;46.47
6853;BME280;3465;42.144;24.722;2022-09-09T15:09:04;99358.22;;;31.70;46.32
6853;BME280;3465;42.144;24.722;2022-09-09T15:11:34;99354.59;;;31.60;46.20
6853;BME280;3465;42.144;24.722;2022-09-09T15:14:03;99345.41;;;31.40;46.80
6853;BME280;3465;42.144;24.722;2022-09-09T15:16:28;99360.25;;;31.43;46.57
6853;BME280;3465;42.144;24.722;2022-09-09T15:18:56;99361.88;;;31.45;46.42
6853;BME280;3465;42.144;24.722;2022-09-09T15:21:25;99366.25;;;31.34;46.83
6853;BME280;3465;42.144;24.722;2022-09-09T15:23:51;99360.72;;;31.24;46.99
6853;BME280;3465;42.144;24.722;2022-09-09T15:26:18;99339.25;;;31.04;46.80
6853;BME280;3465;42.144;24.722;2022-09-09T15:28:45;99352.16;;;31.08;47.21
6853;BME280;3465;42.144;24.722;2022-09-09T15:33:55;99344.28;;;30.83;47.88
6853;BME280;3465;42.144;24.722;2022-09-09T15:39:03;99322.59;;;30.64;47.48
6853;BME280;3465;42.144;24.722;2022-09-09T15:41:30;99344.34;;;30.69;48.08
6853;BME280;3465;42.144;24.722;2022-09-09T15:43:57;99342.13;;;30.63;48.18
6853;BME280;3465;42.144;24.722;2022-09-09T15:49:22;99332.56;;;30.48;48.69
6853;BME280;3465;42.144;24.722;2022-09-09T15:51:55;99326.84;;;30.41;48.85